Ege, Indiana
Current Conditions -  °F | °C
As of 6:35 AM on Tuesday 21 Oct 2014 (Local Time) from KGWB Reporting Station
Overcast Overcast  
Wind Chill: 42°   Ceiling: 2500
Heat Index: 46°   Visibility: 10mi
Dew Point: 41°   Wind: 9mph
Humidity: 81%   Direction: 310°NW
Pressure: 29.99"   Gusts: NA
Location:  41.3048°N, 85.2502°W
Report Text: KGWB 211035Z AUTO 31008KT 10SM SCT019 OVC025 08/05 A2999 RMK AO2
Loading
Personal Weather Stations






























Interactive Weather Map
Tropical Storm Tracking
New forecast layout! Learn more

10-Day Weather Forecast

Advertisements
Track Severe Weather on mobile